Time;durP1;ratioP1;P1;durP2;ratioP2;P2;SDS_P1;SDS_P2;PMS_P1;PMS_P2;Temp;Humidity;BMP_temperature;BMP_pressure;BME280_temperature;BME280_humidity;BME280_pressure;Samples;Min_cycle;Max_cycle;Signal;HPM_P1;HPM_P2
2022/09/09 00:00:20;;;;;;;11.00;9.90;;;15.20;99.90;;;;;;5015948;28;20814;-73
2022/09/09 00:02:55;;;;;;;12.30;11.10;;;15.30;99.90;;;;;;5015746;28;20487;-73
2022/09/09 00:05:29;;;;;;;12.77;11.57;;;15.30;99.90;;;;;;5015765;28;20485;-73
2022/09/09 00:08:03;;;;;;;11.43;10.33;;;15.30;99.90;;;;;;5015470;28;21003;-72
2022/09/09 00:10:33;;;;;;;13.47;11.53;;;15.30;99.90;;;;;;5015924;28;20427;-74
2022/09/09 00:13:07;;;;;;;13.00;11.60;;;15.30;99.90;;;;;;5016315;28;20440;-73
2022/09/09 00:15:39;;;;;;;11.80;10.70;;;15.30;99.90;;;;;;5015705;28;20424;-73
2022/09/09 00:18:18;;;;;;;11.70;10.50;;;15.10;99.90;;;;;;5015918;28;20446;-73
2022/09/09 00:20:54;;;;;;;12.13;10.90;;;15.20;99.90;;;;;;5015973;28;20486;-73
2022/09/09 00:23:26;;;;;;;13.87;12.30;;;15.30;99.90;;;;;;5014675;28;20970;-73
2022/09/09 00:26:03;;;;;;;13.20;11.83;;;15.20;99.90;;;;;;5015231;28;20428;-73
2022/09/09 00:28:32;;;;;;;12.70;11.50;;;15.20;99.90;;;;;;5015515;28;21029;-73
2022/09/09 00:31:02;;;;;;;12.90;11.60;;;15.20;99.90;;;;;;5015386;28;20452;-74
2022/09/09 00:33:32;;;;;;;10.70;9.70;;;15.10;99.90;;;;;;5015396;28;20436;-73
2022/09/09 00:36:00;;;;;;;10.83;9.73;;;15.10;99.90;;;;;;5015356;28;20534;-73
2022/09/09 00:38:33;;;;;;;12.13;9.87;;;15.00;99.90;;;;;;5014931;28;20475;-73
2022/09/09 00:41:07;;;;;;;11.23;10.03;;;15.00;99.90;;;;;;5015280;28;20427;-72
2022/09/09 00:43:37;;;;;;;11.13;9.67;;;15.10;99.90;;;;;;5015834;28;20420;-73
2022/09/09 00:46:27;;;;;;;12.37;10.87;;;15.10;99.90;;;;;;5014770;28;20530;-73
2022/09/09 00:49:02;;;;;;;10.50;9.40;;;15.00;99.90;;;;;;5015086;28;20424;-73
2022/09/09 00:51:41;;;;;;;11.63;10.47;;;15.00;99.90;;;;;;5015034;28;20489;-74
2022/09/09 00:54:27;;;;;;;11.13;10.03;;;15.00;99.90;;;;;;5015014;28;20424;-73
2022/09/09 00:57:11;;;;;;;12.20;11.00;;;15.00;99.90;;;;;;5014551;28;21048;-73
2022/09/09 00:59:47;;;;;;;11.50;10.40;;;15.00;99.90;;;;;;5014928;28;20822;-73
2022/09/09 01:02:22;;;;;;;11.70;10.50;;;15.00;99.90;;;;;;5014415;28;21047;-73
2022/09/09 01:04:49;;;;;;;11.50;9.60;;;15.00;99.90;;;;;;5015731;28;20839;-73
2022/09/09 01:07:18;;;;;;;9.90;8.90;;;15.00;99.90;;;;;;5015079;28;20982;-73
2022/09/09 01:09:55;;;;;;;9.67;8.67;;;14.90;99.90;;;;;;5015378;28;20436;-73
2022/09/09 01:12:29;;;;;;;11.00;9.90;;;14.90;99.90;;;;;;5014674;28;20427;-73
2022/09/09 01:15:08;;;;;;;10.60;9.40;;;14.90;99.90;;;;;;5014624;28;20490;-74
2022/09/09 01:17:37;;;;;;;11.50;8.50;;;14.90;99.90;;;;;;5014571;28;20475;-73
2022/09/09 01:20:11;;;;;;;8.57;7.70;;;14.80;99.90;;;;;;5014588;28;20448;-73
2022/09/09 01:22:45;;;;;;;8.80;8.00;;;14.80;99.90;;;;;;5014466;28;20467;-73
2022/09/09 01:28:26;;;;;;;10.18;9.18;;;14.70;99.90;;;;;;5095398;27;1252343;-72
2022/09/09 01:30:53;;;;;;;8.77;8.03;;;14.70;99.90;;;;;;5131196;28;20257;-73
2022/09/09 01:33:20;;;;;;;9.70;7.83;;;14.70;99.90;;;;;;5131407;28;20816;-73
2022/09/09 01:35:54;;;;;;;9.03;8.13;;;14.70;99.90;;;;;;5131434;28;20566;-72
2022/09/09 01:38:22;;;;;;;9.30;8.23;;;14.70;99.90;;;;;;5131250;27;21038;-72
2022/09/09 01:40:49;;;;;;;10.63;8.73;;;14.70;99.90;;;;;;5144893;22;20526;-82
2022/09/09 01:43:16;;;;;;;10.00;9.10;;;14.70;99.90;;;;;;5107169;28;20447;-82
2022/09/09 01:45:46;;;;;;;9.53;8.63;;;14.70;99.90;;;;;;5105712;28;20443;-83
2022/09/09 01:48:13;;;;;;;10.67;9.40;;;14.60;99.90;;;;;;5107177;28;20468;-82
2022/09/09 01:50:40;;;;;;;9.60;8.70;;;14.70;99.90;;;;;;5107783;28;20474;-81
2022/09/09 01:53:07;;;;;;;9.47;8.57;;;14.60;99.90;;;;;;5106405;28;20470;-81
2022/09/09 01:55:39;;;;;;;9.53;8.50;;;14.60;99.90;;;;;;5111034;28;20432;-82
2022/09/09 01:58:19;;;;;;;9.43;8.60;;;14.60;99.90;;;;;;5112316;28;20408;-81
2022/09/09 02:00:54;;;;;;;11.10;8.63;;;14.60;99.90;;;;;;5114077;28;20466;-81
2022/09/09 02:03:25;;;;;;;9.70;8.27;;;14.60;99.90;;;;;;5111417;28;20428;-81
2022/09/09 02:06:00;;;;;;;8.97;8.20;;;14.60;99.90;;;;;;5105552;28;20771;-82
2022/09/09 02:08:35;;;;;;;9.73;8.80;;;14.60;99.90;;;;;;5107004;28;21014;-82
2022/09/09 02:11:08;;;;;;;10.37;9.27;;;14.60;99.90;;;;;;5103280;28;20470;-81
2022/09/09 02:13:39;;;;;;;10.00;9.00;;;14.60;99.90;;;;;;5105496;28;20507;-80
2022/09/09 02:16:10;;;;;;;10.30;9.20;;;14.60;99.90;;;;;;5105477;28;20424;-81
2022/09/09 02:18:45;;;;;;;10.40;9.40;;;14.60;99.90;;;;;;5106310;28;20432;-81
2022/09/09 02:21:13;;;;;;;9.10;8.23;;;14.60;99.90;;;;;;5105783;28;20965;-81
2022/09/09 02:23:43;;;;;;;9.27;8.37;;;14.50;99.90;;;;;;5101571;28;20446;-81
2022/09/09 02:26:14;;;;;;;10.80;9.20;;;14.40;99.90;;;;;;5103030;28;20444;-81
2022/09/09 02:28:42;;;;;;;10.33;8.67;;;14.40;99.90;;;;;;5104032;28;20428;-82
2022/09/09 02:31:10;;;;;;;10.50;9.47;;;14.40;99.90;;;;;;5104825;28;20456;-82
2022/09/09 02:33:42;;;;;;;9.60;8.37;;;14.40;99.90;;;;;;5105184;28;20439;-80
2022/09/09 02:36:11;;;;;;;9.67;8.77;;;14.40;99.90;;;;;;5104954;28;20450;-81
2022/09/09 02:38:43;;;;;;;8.80;7.93;;;14.40;99.90;;;;;;5097386;28;20440;-80
2022/09/09 02:41:10;;;;;;;9.00;8.10;;;14.40;99.90;;;;;;5091676;28;20525;-80
2022/09/09 02:43:37;;;;;;;16.43;8.73;;;14.40;99.90;;;;;;5091216;28;20440;-82
2022/09/09 02:46:25;;;;;;;8.80;7.90;;;14.40;99.90;;;;;;5090238;28;20440;-80
2022/09/09 02:49:01;;;;;;;10.43;8.70;;;14.40;99.90;;;;;;5090442;28;20417;-80
2022/09/09 02:51:37;;;;;;;10.13;9.20;;;14.40;99.90;;;;;;5090177;28;20460;-82
2022/09/09 02:54:12;;;;;;;9.50;8.43;;;14.40;99.90;;;;;;5090780;28;20428;-81
2022/09/09 02:56:42;;;;;;;8.50;7.70;;;14.40;99.90;;;;;;5091014;28;20420;-82
2022/09/09 02:59:09;;;;;;;9.07;7.97;;;14.30;99.90;;;;;;5091399;28;20440;-81
2022/09/09 03:01:36;;;;;;;8.60;7.47;;;14.30;99.90;;;;;;5090941;28;20528;-81
2022/09/09 03:04:05;;;;;;;9.37;8.17;;;14.30;99.90;;;;;;5088436;28;20482;-82
2022/09/09 03:06:32;;;;;;;8.73;7.83;;;14.30;99.90;;;;;;5088915;28;20528;-80
2022/09/09 03:09:00;;;;;;;9.07;8.23;;;14.20;99.90;;;;;;5087139;28;20472;-80
2022/09/09 03:11:27;;;;;;;8.83;7.47;;;14.20;99.90;;;;;;5087407;28;20464;-81
2022/09/09 03:13:55;;;;;;;9.83;8.40;;;14.10;99.90;;;;;;5088866;28;20512;-81
2022/09/09 03:16:22;;;;;;;13.97;8.03;;;14.20;99.90;;;;;;5088201;28;20437;-80
2022/09/09 03:18:49;;;;;;;9.90;7.90;;;14.20;99.90;;;;;;5088883;28;20441;-81
2022/09/09 03:21:18;;;;;;;9.20;8.30;;;14.20;99.90;;;;;;5089092;28;20476;-81
2022/09/09 03:23:45;;;;;;;7.80;7.10;;;14.20;99.90;;;;;;5086716;28;20455;-81
2022/09/09 03:26:14;;;;;;;9.97;8.10;;;14.20;99.90;;;;;;5087608;28;20449;-82
2022/09/09 03:28:41;;;;;;;8.13;7.33;;;14.20;99.90;;;;;;5090495;28;20483;-80
2022/09/09 03:31:10;;;;;;;8.37;7.57;;;14.20;99.90;;;;;;5099441;28;20444;-80
2022/09/09 03:33:36;;;;;;;9.47;7.47;;;14.20;99.90;;;;;;5099470;28;20433;-81
2022/09/09 03:36:07;;;;;;;12.97;8.07;;;14.10;99.90;;;;;;5097439;28;20439;-80
2022/09/09 03:38:35;;;;;;;11.07;7.30;;;14.20;99.90;;;;;;5085759;28;20425;-82
2022/09/09 03:41:02;;;;;;;8.50;7.67;;;14.10;99.90;;;;;;5084249;28;20485;-81
2022/09/09 03:43:30;;;;;;;9.17;8.37;;;14.10;99.90;;;;;;5086069;28;20452;-81
2022/09/09 03:45:57;;;;;;;8.47;7.63;;;14.10;99.90;;;;;;5085243;28;20475;-81
2022/09/09 03:48:24;;;;;;;12.17;7.90;;;14.10;99.90;;;;;;5083524;28;20540;-80
2022/09/09 03:50:53;;;;;;;9.07;7.60;;;14.10;99.90;;;;;;5083569;28;20493;-80
2022/09/09 03:53:21;;;;;;;8.60;7.80;;;14.10;99.90;;;;;;5084114;28;20499;-81
2022/09/09 03:55:54;;;;;;;8.67;7.87;;;14.00;99.90;;;;;;5086309;28;20441;-81
2022/09/09 03:58:21;;;;;;;7.80;6.80;;;14.00;99.90;;;;;;5083020;28;20814;-80
2022/09/09 04:00:54;;;;;;;7.83;7.10;;;14.00;99.90;;;;;;5083218;28;20469;-80
2022/09/09 04:03:22;;;;;;;8.13;7.20;;;14.00;99.90;;;;;;5080732;28;20433;-81
2022/09/09 04:05:50;;;;;;;7.97;7.00;;;14.00;99.90;;;;;;5079063;28;20506;-81
2022/09/09 04:08:16;;;;;;;7.83;7.00;;;14.00;99.90;;;;;;5079691;28;20472;-81
2022/09/09 04:10:45;;;;;;;7.80;7.00;;;14.10;99.90;;;;;;5079450;28;20541;-81
2022/09/09 04:13:15;;;;;;;9.73;7.87;;;14.00;99.90;;;;;;5080934;28;20456;-82
2022/09/09 04:15:42;;;;;;;8.97;8.17;;;14.00;99.90;;;;;;5080939;28;20518;-80
2022/09/09 04:18:08;;;;;;;8.00;7.30;;;14.00;99.90;;;;;;5081391;28;20474;-81
2022/09/09 04:20:35;;;;;;;12.83;7.97;;;13.90;99.90;;;;;;5080927;28;20491;-81
2022/09/09 04:23:02;;;;;;;7.97;7.23;;;13.90;99.90;;;;;;5082668;28;20449;-80
2022/09/09 04:25:29;;;;;;;11.87;7.97;;;13.90;99.90;;;;;;5083049;28;20447;-81
2022/09/09 04:27:56;;;;;;;9.43;8.20;;;14.00;99.90;;;;;;5085584;28;20523;-81
2022/09/09 04:30:25;;;;;;;7.83;6.80;;;14.30;99.90;;;;;;5078903;28;20927;-81
2022/09/09 04:32:51;;;;;;;8.23;7.43;;;14.00;99.90;;;;;;5080093;28;20448;-81
2022/09/09 04:35:19;;;;;;;8.03;7.33;;;14.10;99.90;;;;;;5080266;28;20452;-81
2022/09/09 04:37:48;;;;;;;7.83;6.90;;;14.10;99.90;;;;;;5078561;28;20479;-80
2022/09/09 04:40:15;;;;;;;8.87;8.07;;;13.60;99.90;;;;;;5081062;28;20453;-80
2022/09/09 04:42:43;;;;;;;9.40;6.43;;;14.10;99.90;;;;;;5079379;28;20425;-79
2022/09/09 04:45:13;;;;;;;8.13;7.33;;;14.10;99.90;;;;;;5078150;28;20452;-83
2022/09/09 04:47:41;;;;;;;8.07;7.27;;;14.10;99.90;;;;;;5078250;28;20503;-80
2022/09/09 04:50:09;;;;;;;10.03;7.30;;;14.10;99.90;;;;;;5078346;28;20451;-80
2022/09/09 04:52:36;;;;;;;8.23;7.00;;;14.10;99.90;;;;;;5078880;28;20448;-80
2022/09/09 04:55:04;;;;;;;6.93;6.33;;;14.10;99.90;;;;;;5078321;28;20460;-80
2022/09/09 04:57:31;;;;;;;7.43;6.87;;;14.00;99.90;;;;;;5079697;28;20495;-80
2022/09/09 04:59:59;;;;;;;7.57;6.97;;;14.10;99.90;;;;;;5077829;28;20966;-80
2022/09/09 05:02:26;;;;;;;6.30;5.70;;;14.00;99.90;;;;;;5076573;28;20971;-80
2022/09/09 05:04:55;;;;;;;8.25;7.03;;;14.00;99.90;;;;;;5076016;28;20445;-80
2022/09/09 05:07:21;;;;;;;7.23;6.53;;;14.00;99.90;;;;;;5078293;28;20240;-80
2022/09/09 05:09:49;;;;;;;10.20;6.97;;;14.10;99.90;;;;;;5079143;28;20474;-80
2022/09/09 05:12:17;;;;;;;8.90;6.33;;;14.20;99.90;;;;;;5078749;28;20469;-81
2022/09/09 05:14:43;;;;;;;9.37;7.63;;;14.10;99.90;;;;;;5078526;28;20828;-81
2022/09/09 05:17:10;;;;;;;11.63;6.77;;;14.20;99.90;;;;;;5077029;28;20945;-80
2022/09/09 05:19:37;;;;;;;6.87;6.27;;;14.20;99.90;;;;;;5078017;28;20441;-80
2022/09/09 05:22:05;;;;;;;10.70;6.50;;;14.10;99.90;;;;;;5076892;28;20823;-79
2022/09/09 05:24:33;;;;;;;8.80;5.87;;;14.20;99.90;;;;;;5078791;28;21004;-79
2022/09/09 05:27:01;;;;;;;11.30;6.00;;;14.20;99.90;;;;;;5078567;28;20441;-80
2022/09/09 05:29:28;;;;;;;8.23;5.57;;;14.20;99.90;;;;;;5078402;28;20495;-81
2022/09/09 05:31:54;;;;;;;13.43;6.57;;;14.30;99.90;;;;;;5078496;28;20999;-80
2022/09/09 05:34:22;;;;;;;6.17;5.57;;;14.40;99.90;;;;;;5078989;28;20444;-81
2022/09/09 05:36:48;;;;;;;6.77;6.00;;;14.50;99.90;;;;;;5077638;28;20445;-79
2022/09/09 05:39:16;;;;;;;14.93;7.03;;;14.50;99.90;;;;;;5078340;28;20862;-80
2022/09/09 05:41:43;;;;;;;10.17;6.80;;;14.50;99.90;;;;;;5077939;28;20508;-80
2022/09/09 05:44:10;;;;;;;6.63;6.07;;;14.50;99.90;;;;;;5078200;28;20468;-80
2022/09/09 05:46:37;;;;;;;5.73;5.23;;;14.50;99.90;;;;;;5077447;28;20862;-81
2022/09/09 05:49:05;;;;;;;6.20;5.47;;;14.50;99.90;;;;;;5079412;28;20579;-79
2022/09/09 05:51:32;;;;;;;7.67;6.93;;;14.60;99.90;;;;;;5077521;28;20472;-80
2022/09/09 05:53:59;;;;;;;17.83;13.23;;;14.60;99.90;;;;;;5077633;28;20448;-80
2022/09/09 05:56:28;;;;;;;9.00;6.47;;;14.70;99.90;;;;;;5078224;28;20471;-78
2022/09/09 05:58:56;;;;;;;7.80;6.47;;;14.70;99.90;;;;;;5077104;28;20463;-80
2022/09/09 06:01:24;;;;;;;6.90;5.40;;;14.70;99.90;;;;;;5076938;28;20464;-81
2022/09/09 06:03:52;;;;;;;11.33;5.50;;;14.80;99.90;;;;;;5077184;28;20441;-81
2022/09/09 06:06:21;;;;;;;6.30;5.13;;;14.80;99.90;;;;;;5080012;28;20539;-80
2022/09/09 06:08:50;;;;;;;6.03;4.77;;;14.60;99.90;;;;;;5081064;28;20508;-81
2022/09/09 06:11:18;;;;;;;6.87;5.00;;;14.80;99.90;;;;;;5078151;28;20564;-80
2022/09/09 06:13:47;;;;;;;6.60;5.50;;;14.90;99.90;;;;;;5077697;28;20939;-80
2022/09/09 06:16:16;;;;;;;7.03;5.63;;;14.90;99.90;;;;;;5081021;28;20476;-80
2022/09/09 06:18:43;;;;;;;6.27;5.23;;;14.90;99.90;;;;;;5080212;28;20441;-80
2022/09/09 06:21:15;;;;;;;6.10;5.50;;;15.00;99.90;;;;;;5081074;28;20468;-81
2022/09/09 06:23:42;;;;;;;5.10;4.70;;;15.00;99.90;;;;;;5080656;28;20484;-81
2022/09/09 06:26:12;;;;;;;4.77;4.30;;;15.10;99.90;;;;;;5080573;28;20795;-80
2022/09/09 06:28:39;;;;;;;6.73;4.90;;;15.10;99.90;;;;;;5080274;28;20471;-80
2022/09/09 06:31:09;;;;;;;5.50;5.00;;;14.90;99.90;;;;;;5080774;28;20465;-81
2022/09/09 06:33:40;;;;;;;5.83;4.40;;;15.20;99.90;;;;;;5080721;28;20432;-81
2022/09/09 06:36:11;;;;;;;5.43;4.80;;;15.20;99.90;;;;;;5080596;28;20930;-81
2022/09/09 06:38:38;;;;;;;6.70;4.20;;;15.30;99.90;;;;;;5080009;28;20421;-81
2022/09/09 06:41:05;;;;;;;9.83;4.53;;;15.30;99.90;;;;;;5079239;28;20908;-80
2022/09/09 06:43:32;;;;;;;4.43;4.03;;;15.40;99.90;;;;;;5079439;28;20483;-80
2022/09/09 06:46:01;;;;;;;9.50;5.23;;;15.50;99.90;;;;;;5080990;28;20463;-81
2022/09/09 06:48:29;;;;;;;7.80;5.70;;;15.50;99.90;;;;;;5082353;28;20476;-81
2022/09/09 06:51:03;;;;;;;10.53;5.50;;;15.70;99.90;;;;;;5080117;28;20510;-80
2022/09/09 06:53:31;;;;;;;15.70;7.57;;;15.80;99.90;;;;;;5081238;28;20444;-80
2022/09/09 06:55:57;;;;;;;4.70;4.23;;;15.80;99.90;;;;;;5080211;28;20445;-80
2022/09/09 06:58:24;;;;;;;6.97;5.60;;;16.00;99.90;;;;;;5079384;28;20951;-80
2022/09/09 07:00:51;;;;;;;7.03;5.90;;;16.00;99.90;;;;;;5080857;28;20468;-81
2022/09/09 07:03:17;;;;;;;12.30;11.03;;;16.00;99.90;;;;;;5080004;28;20818;-80
2022/09/09 07:05:55;;;;;;;6.07;4.33;;;16.10;99.90;;;;;;5080660;28;20468;-79
2022/09/09 07:08:22;;;;;;;6.03;4.80;;;16.10;99.90;;;;;;5081753;28;20469;-80
2022/09/09 07:10:49;;;;;;;9.50;5.13;;;16.10;99.90;;;;;;5080444;28;20830;-80
2022/09/09 07:13:16;;;;;;;6.30;4.00;;;16.10;99.90;;;;;;5082094;28;20445;-82
2022/09/09 07:15:42;;;;;;;7.00;4.27;;;16.20;99.90;;;;;;5082246;28;20466;-80
2022/09/09 07:18:10;;;;;;;14.60;5.37;;;16.20;99.90;;;;;;5084210;28;20444;-79
2022/09/09 07:20:36;;;;;;;17.30;5.60;;;16.30;99.90;;;;;;5081723;28;20469;-79
2022/09/09 07:23:04;;;;;;;11.00;6.13;;;16.40;99.90;;;;;;5081139;28;20471;-80
2022/09/09 07:25:31;;;;;;;20.83;6.20;;;16.40;99.90;;;;;;5081705;28;20506;-80
2022/09/09 07:27:58;;;;;;;5.63;3.97;;;16.40;99.90;;;;;;5081497;28;20939;-80
2022/09/09 07:30:24;;;;;;;6.00;4.10;;;16.50;99.90;;;;;;5082386;28;20563;-81
2022/09/09 07:32:52;;;;;;;11.73;3.80;;;16.50;99.90;;;;;;5083572;28;20453;-80
2022/09/09 07:35:20;;;;;;;4.03;3.60;;;16.60;99.90;;;;;;5085359;28;20542;-81
2022/09/09 07:37:46;;;;;;;3.90;3.50;;;16.60;99.90;;;;;;5086169;28;20462;-80
2022/09/09 07:40:19;;;;;;;4.30;2.90;;;16.60;99.90;;;;;;5090764;28;20456;-81
2022/09/09 07:42:47;;;;;;;3.93;3.47;;;16.70;99.90;;;;;;5089114;22;20512;-74
2022/09/09 07:45:14;;;;;;;3.20;2.80;;;16.80;99.90;;;;;;5074276;28;20444;-75
2022/09/09 07:47:42;;;;;;;7.10;4.00;;;16.90;99.90;;;;;;5074400;28;20506;-76
2022/09/09 07:50:09;;;;;;;8.57;3.70;;;16.90;99.90;;;;;;5074290;28;20488;-76
2022/09/09 07:52:36;;;;;;;4.03;3.63;;;17.10;99.90;;;;;;5074283;28;20488;-76
2022/09/09 07:55:04;;;;;;;4.80;3.50;;;17.20;99.90;;;;;;5074428;28;20927;-76
2022/09/09 07:57:32;;;;;;;6.13;3.20;;;17.30;99.90;;;;;;5074067;28;20456;-75
2022/09/09 07:59:59;;;;;;;2.83;2.30;;;17.30;99.90;;;;;;5074256;28;20498;-76
2022/09/09 08:02:29;;;;;;;4.13;2.67;;;17.40;99.90;;;;;;5074110;28;20473;-75
2022/09/09 08:04:56;;;;;;;3.43;3.17;;;17.50;99.90;;;;;;5074083;28;20842;-75
2022/09/09 08:07:23;;;;;;;3.33;3.03;;;17.60;99.90;;;;;;5074093;28;20502;-74
2022/09/09 08:09:50;;;;;;;8.13;4.43;;;17.60;99.90;;;;;;5074180;28;20886;-75
2022/09/09 08:12:18;;;;;;;5.27;4.37;;;17.70;99.90;;;;;;5073950;28;20555;-76
2022/09/09 08:14:46;;;;;;;6.20;3.33;;;17.70;99.90;;;;;;5073895;28;20483;-75
2022/09/09 08:17:12;;;;;;;4.80;3.87;;;17.80;99.90;;;;;;5075112;28;20510;-74
2022/09/09 08:19:39;;;;;;;7.20;3.50;;;17.80;99.90;;;;;;5077640;28;20510;-76
2022/09/09 08:22:06;;;;;;;3.57;3.23;;;17.70;99.90;;;;;;5075252;28;20469;-74
2022/09/09 08:24:32;;;;;;;8.90;3.57;;;17.70;99.90;;;;;;5073783;28;20453;-74
2022/09/09 08:26:59;;;;;;;3.93;2.90;;;17.80;99.90;;;;;;5073718;28;20440;-75
2022/09/09 08:29:27;;;;;;;8.33;4.30;;;17.80;99.90;;;;;;5073310;28;20522;-74
2022/09/09 08:31:57;;;;;;;5.70;4.40;;;17.80;99.90;;;;;;5073273;28;20464;-75
2022/09/09 08:34:26;;;;;;;5.93;3.73;;;17.90;99.90;;;;;;5073508;28;20432;-75
2022/09/09 08:36:53;;;;;;;3.00;2.70;;;17.90;99.90;;;;;;5073414;28;20457;-76
2022/09/09 08:39:21;;;;;;;3.03;2.83;;;18.00;99.90;;;;;;5074333;28;20443;-75
2022/09/09 08:42:22;;;;;;;3.70;3.37;;;18.00;99.90;;;;;;5073993;28;20506;-75
2022/09/09 08:45:13;;;;;;;4.30;3.27;;;18.00;99.90;;;;;;5074172;28;20428;-75
2022/09/09 08:47:53;;;;;;;3.70;3.20;;;18.00;99.90;;;;;;5073396;28;20431;-75
2022/09/09 08:50:24;;;;;;;4.23;3.80;;;17.90;99.90;;;;;;5073162;28;20464;-75
2022/09/09 08:53:00;;;;;;;6.80;3.63;;;18.00;99.90;;;;;;5073063;28;20468;-75
2022/09/09 08:55:36;;;;;;;5.30;3.80;;;17.90;99.90;;;;;;5073223;28;20427;-75
2022/09/09 08:58:09;;;;;;;3.33;3.03;;;18.00;99.90;;;;;;5072877;28;20428;-75
2022/09/09 09:00:45;;;;;;;3.50;3.00;;;18.30;99.90;;;;;;5073047;28;20448;-75
2022/09/09 09:03:22;;;;;;;5.03;3.30;;;18.20;99.90;;;;;;5073623;28;20844;-76
2022/09/09 09:05:56;;;;;;;6.57;5.27;;;18.40;99.90;;;;;;5073112;28;20433;-75
2022/09/09 09:08:31;;;;;;;5.17;4.33;;;18.50;99.90;;;;;;5073692;28;20814;-75
2022/09/09 09:11:00;;;;;;;4.97;3.60;;;18.60;99.90;;;;;;5073659;28;20472;-75
2022/09/09 09:13:36;;;;;;;3.80;3.37;;;18.80;99.90;;;;;;5073392;28;20468;-75
2022/09/09 09:16:24;;;;;;;4.37;3.30;;;19.00;99.90;;;;;;5072829;28;20789;-76
2022/09/09 09:18:52;;;;;;;5.03;2.70;;;19.10;99.90;;;;;;5072728;28;20444;-75
2022/09/09 09:21:26;;;;;;;4.27;3.27;;;19.10;99.90;;;;;;5072824;28;21020;-76
2022/09/09 09:23:57;;;;;;;7.80;3.90;;;19.20;99.90;;;;;;5073463;28;20429;-75
2022/09/09 09:26:29;;;;;;;5.40;4.13;;;19.30;99.90;;;;;;5072659;28;20437;-76
2022/09/09 09:28:57;;;;;;;4.30;3.00;;;19.40;99.90;;;;;;5072513;28;20475;-75
2022/09/09 09:31:26;;;;;;;3.17;2.87;;;19.40;99.90;;;;;;5072517;28;20471;-75
2022/09/09 09:33:55;;;;;;;3.90;2.93;;;19.40;99.90;;;;;;5072425;28;20484;-76
2022/09/09 09:36:26;;;;;;;5.20;3.53;;;19.30;99.90;;;;;;5072024;28;20448;-76
2022/09/09 09:38:56;;;;;;;7.30;3.60;;;19.40;99.90;;;;;;5072142;28;20928;-75
2022/09/09 09:41:33;;;;;;;4.70;3.27;;;19.30;99.90;;;;;;5071790;28;20503;-75
2022/09/09 09:44:01;;;;;;;4.20;3.63;;;19.30;99.90;;;;;;5072334;28;20445;-76
2022/09/09 09:46:28;;;;;;;7.27;2.53;;;19.40;99.90;;;;;;5072244;28;20562;-76
2022/09/09 09:49:00;;;;;;;3.40;2.70;;;19.30;99.90;;;;;;5074084;28;20864;-75
2022/09/09 09:51:28;;;;;;;5.53;3.87;;;19.30;99.90;;;;;;5076186;28;20461;-75
2022/09/09 09:53:56;;;;;;;5.57;4.10;;;19.30;99.90;;;;;;5076846;28;20448;-73
2022/09/09 09:56:29;;;;;;;6.80;4.17;;;19.30;99.90;;;;;;5076802;28;20854;-75
2022/09/09 09:58:56;;;;;;;5.57;3.07;;;19.30;99.90;;;;;;5076877;28;20502;-75
2022/09/09 10:01:25;;;;;;;4.17;3.00;;;19.40;99.90;;;;;;5076478;28;20476;-75
2022/09/09 10:03:53;;;;;;;3.70;2.73;;;19.50;99.90;;;;;;5076251;28;20448;-75
2022/09/09 10:06:32;;;;;;;3.10;2.47;;;19.60;99.90;;;;;;5076381;28;20488;-75
2022/09/09 10:08:59;;;;;;;2.93;2.30;;;19.60;99.90;;;;;;5076812;28;20460;-75
2022/09/09 10:11:44;;;;;;;3.50;3.10;;;19.60;99.90;;;;;;5076673;28;20510;-75
2022/09/09 10:14:20;;;;;;;6.33;3.70;;;19.60;99.90;;;;;;5076282;28;20524;-75
2022/09/09 10:17:00;;;;;;;3.57;3.30;;;19.60;99.90;;;;;;5076949;28;20428;-74
2022/09/09 10:19:32;;;;;;;2.43;2.33;;;19.70;99.90;;;;;;5076811;28;20499;-75
2022/09/09 10:22:10;;;;;;;4.73;2.60;;;19.80;99.90;;;;;;5076658;28;20475;-76
2022/09/09 10:24:57;;;;;;;3.67;2.97;;;19.90;99.90;;;;;;5077274;28;20439;-77
2022/09/09 10:27:33;;;;;;;6.73;2.60;;;19.80;99.90;;;;;;5076378;28;20436;-75
2022/09/09 10:30:13;;;;;;;4.27;3.30;;;20.00;99.90;;;;;;5076159;28;20468;-77
2022/09/09 10:32:46;;;;;;;3.43;2.60;;;20.20;99.90;;;;;;5075912;28;20472;-75
2022/09/09 10:35:33;;;;;;;3.30;2.30;;;20.20;99.90;;;;;;5076053;28;20436;-76
2022/09/09 10:38:18;;;;;;;2.97;2.77;;;20.20;99.90;;;;;;5077110;28;20975;-74
2022/09/09 10:41:00;;;;;;;3.77;2.87;;;20.50;99.90;;;;;;5078321;28;20471;-75
2022/09/09 10:43:51;;;;;;;5.37;2.93;;;20.30;99.90;;;;;;5078280;28;20470;-77
2022/09/09 10:46:32;;;;;;;6.00;3.40;;;20.30;99.90;;;;;;5076063;28;20445;-75
2022/09/09 10:49:09;;;;;;;3.23;2.70;;;20.30;99.90;;;;;;5075310;28;20938;-76
2022/09/09 10:51:46;;;;;;;3.50;3.07;;;20.40;99.90;;;;;;5075328;28;20517;-75
2022/09/09 10:54:27;;;;;;;5.57;3.10;;;20.50;99.90;;;;;;5075607;28;20519;-76
2022/09/09 10:56:59;;;;;;;8.10;5.17;;;20.50;99.90;;;;;;5075527;28;20528;-75
2022/09/09 10:59:30;;;;;;;13.50;10.37;;;20.60;99.90;;;;;;5074638;28;20425;-76
2022/09/09 11:02:00;;;;;;;6.83;4.73;;;20.70;99.90;;;;;;5075530;28;20469;-75
2022/09/09 11:04:34;;;;;;;3.00;2.50;;;20.80;99.90;;;;;;5075716;28;20508;-75
2022/09/09 11:07:07;;;;;;;3.83;2.70;;;20.80;99.90;;;;;;5075115;28;20482;-76
2022/09/09 11:09:42;;;;;;;5.67;3.37;;;20.90;76.20;;;;;;5075486;28;20474;-76
2022/09/09 11:12:16;;;;;;;4.70;3.37;;;21.00;81.10;;;;;;5074966;28;20529;-75
2022/09/09 11:14:46;;;;;;;4.47;2.70;;;20.90;1.00;;;;;;5075606;28;20520;-75
2022/09/09 11:17:18;;;;;;;5.30;2.30;;;20.90;99.90;;;;;;5075485;28;20486;-76
2022/09/09 11:19:45;;;;;;;11.57;3.83;;;21.00;27.40;;;;;;5076777;28;20429;-75
2022/09/09 11:22:20;;;;;;;5.27;3.40;;;21.10;15.00;;;;;;5075844;28;20469;-76
2022/09/09 11:24:54;;;;;;;2.23;1.90;;;21.20;1.00;;;;;;5075942;28;20444;-76
2022/09/09 11:27:26;;;;;;;3.50;2.03;;;21.30;1.00;;;;;;5075037;28;20425;-77
2022/09/09 11:30:07;;;;;;;8.20;1.90;;;21.40;99.90;;;;;;5075362;28;20468;-75
2022/09/09 11:33:04;;;;;;;2.83;2.60;;;21.60;1.00;;;;;;5075184;28;20532;-76
2022/09/09 11:35:39;;;;;;;3.23;2.13;;;21.70;1.00;;;;;;5075013;28;20445;-75
2022/09/09 11:38:21;;;;;;;3.60;1.67;;;21.70;1.00;;;;;;5074913;28;20468;-76
2022/09/09 11:40:57;;;;;;;4.70;2.23;;;21.90;1.00;;;;;;5074760;28;20429;-75
2022/09/09 11:43:27;;;;;;;3.47;2.80;;;21.60;1.00;;;;;;5074813;28;20435;-76
2022/09/09 11:45:58;;;;;;;2.70;2.47;;;21.60;1.00;;;;;;5074890;28;20444;-76
2022/09/09 11:48:30;;;;;;;5.57;2.73;;;21.70;1.00;;;;;;5075334;28;20433;-76
2022/09/09 11:51:04;;;;;;;4.93;4.17;;;21.60;58.00;;;;;;5074398;28;20501;-76
2022/09/09 11:53:32;;;;;;;4.50;2.70;;;21.70;1.00;;;;;;5075244;28;20528;-77
2022/09/09 11:56:13;;;;;;;4.70;2.50;;;21.70;1.00;;;;;;5074266;28;20484;-75
2022/09/09 11:58:46;;;;;;;3.20;2.90;;;21.60;1.00;;;;;;5074978;28;20433;-75
2022/09/09 12:01:43;;;;;;;2.60;2.40;;;21.50;1.00;;;;;;5074197;28;20518;-76
2022/09/09 12:04:33;;;;;;;2.60;2.03;;;21.30;99.90;;;;;;5011960;28;20526;-75
2022/09/09 12:07:03;;;;;;;4.17;2.47;;;21.20;1.00;;;;;;5067103;28;20484;-75
2022/09/09 12:09:45;;;;;;;2.83;2.13;;;21.20;1.00;;;;;;5073849;28;20524;-76
2022/09/09 12:12:32;;;;;;;4.07;2.60;;;21.20;99.90;;;;;;5073376;28;20480;-76
2022/09/09 12:15:02;;;;;;;6.40;2.60;;;21.30;1.00;;;;;;5074236;28;20854;-76
2022/09/09 12:17:31;;;;;;;4.50;2.20;;;21.40;1.00;;;;;;5074258;28;20506;-76
2022/09/09 12:20:14;;;;;;;3.80;2.27;;;21.50;1.00;;;;;;5074424;28;20445;-76
2022/09/09 12:23:10;;;;;;;2.20;1.83;;;21.60;1.00;;;;;;5073808;28;20522;-76
2022/09/09 12:25:58;;;;;;;2.30;2.10;;;21.60;99.90;;;;;;5068182;28;20449;-75
2022/09/09 12:28:37;;;;;;;2.37;2.17;;;21.70;99.90;;;;;;5074223;28;20425;-75
2022/09/09 12:31:13;;;;;;;3.33;2.20;;;21.60;45.60;;;;;;5073677;28;20514;-75
2022/09/09 12:33:43;;;;;;;2.63;2.43;;;21.60;1.00;;;;;;5073662;28;20433;-75
2022/09/09 12:36:14;;;;;;;5.57;3.23;;;21.50;1.00;;;;;;5073613;28;20776;-74
2022/09/09 12:38:42;;;;;;;7.13;2.90;;;21.40;1.00;;;;;;5074077;28;20437;-74
2022/09/09 12:41:20;;;;;;;3.20;2.20;;;21.50;72.30;;;;;;5073350;28;20513;-75
2022/09/09 12:43:49;;;;;;;2.13;1.60;;;21.60;1.00;;;;;;5073458;28;20448;-76
2022/09/09 12:46:26;;;;;;;6.67;3.20;;;21.60;1.00;;;;;;5073559;28;20460;-76
2022/09/09 12:48:54;;;;;;;2.70;1.80;;;21.60;1.00;;;;;;5073486;28;20873;-77
2022/09/09 12:51:26;;;;;;;3.50;2.23;;;21.60;1.00;;;;;;5073326;28;20485;-76
2022/09/09 12:53:53;;;;;;;4.47;3.30;;;21.60;1.00;;;;;;5073442;28;20487;-77
2022/09/09 12:56:22;;;;;;;3.80;3.40;;;21.60;81.20;;;;;;5073467;28;20459;-75
2022/09/09 12:58:52;;;;;;;4.40;2.53;;;21.60;1.00;;;;;;5073524;28;20452;-75
2022/09/09 13:01:32;;;;;;;2.60;2.40;;;21.60;1.00;;;;;;5072873;28;20994;-76
2022/09/09 13:04:00;;;;;;;3.20;2.27;;;21.60;1.00;;;;;;5073494;28;20524;-74
2022/09/09 13:06:29;;;;;;;1.80;1.50;;;21.60;1.00;;;;;;5073204;28;20455;-74
2022/09/09 13:08:58;;;;;;;2.10;1.90;;;21.70;1.00;;;;;;5072786;28;21008;-74